createdAt,value
2022-12-26T00:00:58.637Z,72.10
2022-12-26T00:03:26.277Z,72.10
2022-12-26T00:05:54.457Z,72.10
2022-12-26T00:08:21.388Z,72.10
2022-12-26T00:10:48.357Z,72.10
2022-12-26T00:13:38.798Z,72.10
2022-12-26T00:16:10.416Z,72.10
2022-12-26T00:18:38.785Z,72.20
2022-12-26T00:21:07.579Z,72.10
2022-12-26T00:23:35.782Z,72.10
2022-12-26T00:26:14.436Z,72.10
2022-12-26T00:28:41.903Z,72.00
2022-12-26T00:31:14.823Z,72.20
2022-12-26T00:33:42.898Z,72.10
2022-12-26T00:36:16.874Z,72.10
2022-12-26T00:38:45.218Z,72.20
2022-12-26T00:41:14.185Z,72.20
2022-12-26T00:43:41.562Z,72.10
2022-12-26T00:46:09.378Z,72.20
2022-12-26T00:48:36.617Z,72.10
2022-12-26T00:51:05.194Z,72.10
2022-12-26T00:53:32.140Z,72.10
2022-12-26T00:55:59.489Z,72.00
2022-12-26T00:58:26.737Z,71.80
2022-12-26T01:00:54.656Z,71.70
2022-12-26T01:03:22.244Z,71.70
2022-12-26T01:05:51.508Z,71.50
2022-12-26T01:08:24.104Z,71.50
2022-12-26T01:10:52.577Z,71.40
2022-12-26T01:13:19.915Z,71.20
2022-12-26T01:15:54.357Z,71.10
2022-12-26T01:18:22.018Z,70.90
2022-12-26T01:20:49.232Z,70.70
2022-12-26T01:23:18.013Z,70.80
2022-12-26T01:26:18.530Z,70.60
2022-12-26T01:28:35.444Z,70.70
2022-12-26T01:31:06.598Z,70.40
2022-12-26T01:33:33.677Z,70.40
2022-12-26T01:36:00.872Z,71.30
2022-12-26T01:38:28.463Z,70.40
2022-12-26T01:41:14.155Z,70.50
2022-12-26T01:43:52.417Z,70.40
2022-12-26T01:46:38.310Z,70.30
2022-12-26T01:49:41.499Z,70.20
2022-12-26T01:52:15.706Z,70.20
2022-12-26T01:54:47.577Z,70.30
2022-12-26T01:57:24.830Z,70.30
2022-12-26T01:59:53.700Z,70.30
2022-12-26T02:02:22.343Z,70.40
2022-12-26T02:05:10.596Z,70.70
2022-12-26T02:07:41.944Z,70.60
2022-12-26T02:10:14.253Z,70.70
2022-12-26T02:12:41.418Z,70.70
2022-12-26T02:15:15.497Z,70.80
2022-12-26T02:17:43.737Z,70.70
2022-12-26T02:20:19.145Z,71.50
2022-12-26T02:23:18.377Z,70.50
2022-12-26T02:25:54.443Z,70.40
2022-12-26T02:28:40.135Z,70.20
2022-12-26T02:31:27.784Z,70.20
2022-12-26T02:34:19.816Z,70.40
2022-12-26T02:37:08.718Z,70.40
2022-12-26T02:40:13.260Z,70.40
2022-12-26T02:43:10.430Z,70.40
2022-12-26T02:46:05.357Z,70.20
2022-12-26T02:48:57.816Z,70.10
2022-12-26T02:51:55.580Z,70.00
2022-12-26T02:54:53.810Z,69.60
2022-12-26T02:57:43.890Z,69.50
2022-12-26T03:00:37.956Z,69.30
2022-12-26T03:03:32.003Z,69.40
2022-12-26T03:06:36.673Z,69.20
2022-12-26T03:09:33.845Z,69.00
2022-12-26T03:12:41.762Z,68.90
2022-12-26T03:15:15.566Z,68.80
2022-12-26T03:17:46.879Z,68.50
2022-12-26T03:20:33.346Z,68.40
2022-12-26T03:23:10.741Z,68.30
2022-12-26T03:26:14.144Z,68.20
2022-12-26T03:28:42.474Z,68.30
2022-12-26T03:31:12.735Z,68.20
2022-12-26T03:34:24.802Z,68.00
2022-12-26T03:37:25.308Z,68.80
2022-12-26T03:40:43.337Z,67.70
2022-12-26T03:43:51.277Z,67.70
2022-12-26T03:46:44.535Z,67.70
2022-12-26T03:49:45.953Z,67.70
2022-12-26T03:52:41.084Z,67.50
2022-12-26T03:55:54.943Z,67.70
2022-12-26T03:58:56.325Z,67.60
2022-12-26T04:01:45.981Z,67.70
2022-12-26T04:04:34.029Z,67.60
2022-12-26T04:07:30.692Z,67.50
2022-12-26T04:10:35.661Z,67.50
2022-12-26T04:13:24.838Z,67.50
2022-12-26T04:16:17.428Z,67.40
2022-12-26T04:19:25.832Z,67.60
2022-12-26T04:22:23.544Z,67.40
2022-12-26T04:25:50.817Z,67.40
2022-12-26T04:28:34.589Z,67.40
2022-12-26T04:31:31.792Z,67.40
2022-12-26T04:34:20.748Z,67.50
2022-12-26T04:37:20.268Z,67.50
2022-12-26T04:40:09.672Z,67.50
2022-12-26T04:42:57.192Z,67.50
2022-12-26T04:45:25.167Z,67.10
2022-12-26T04:48:10.733Z,67.20
2022-12-26T04:50:50.584Z,67.30
2022-12-26T04:53:17.818Z,67.00
2022-12-26T04:55:45.097Z,66.60
2022-12-26T04:58:12.741Z,66.80
2022-12-26T05:00:40.646Z,66.70
2022-12-26T05:03:32.502Z,66.40
2022-12-26T05:06:18.221Z,66.50
2022-12-26T05:09:05.746Z,66.40
2022-12-26T05:11:34.594Z,66.30
2022-12-26T05:14:01.642Z,66.40
2022-12-26T05:16:47.707Z,66.40
2022-12-26T05:19:35.719Z,66.20
2022-12-26T05:22:23.740Z,66.40
2022-12-26T05:25:10.821Z,66.10
2022-12-26T05:27:59.504Z,66.90
2022-12-26T05:30:26.634Z,65.90
2022-12-26T05:33:12.171Z,66.00
2022-12-26T05:35:40.137Z,66.00
2022-12-26T05:38:09.699Z,65.90
2022-12-26T05:40:36.833Z,65.80
2022-12-26T05:43:03.954Z,65.60
2022-12-26T05:45:32.309Z,65.60
2022-12-26T05:48:00.606Z,65.50
2022-12-26T05:50:28.484Z,65.50
2022-12-26T05:52:59.313Z,65.60
2022-12-26T05:55:26.624Z,65.50
2022-12-26T05:57:53.776Z,65.60
2022-12-26T06:00:20.990Z,65.40
2022-12-26T06:02:49.090Z,65.40
2022-12-26T06:05:16.748Z,65.20
2022-12-26T06:07:44.295Z,65.30
2022-12-26T06:10:11.628Z,65.20
2022-12-26T06:12:38.927Z,65.30
2022-12-26T06:15:06.530Z,65.30
2022-12-26T06:17:41.374Z,65.40
2022-12-26T06:20:08.971Z,65.30
2022-12-26T06:22:36.120Z,65.20
2022-12-26T06:25:03.327Z,65.20
2022-12-26T06:27:30.379Z,65.20
2022-12-26T06:29:57.363Z,65.30
2022-12-26T06:32:24.411Z,65.30
2022-12-26T06:34:51.387Z,65.20
2022-12-26T06:37:18.374Z,65.00
2022-12-26T06:39:46.321Z,65.20
2022-12-26T06:42:13.233Z,65.00
2022-12-26T06:44:40.241Z,65.20
2022-12-26T06:47:07.240Z,65.10
2022-12-26T06:49:34.264Z,65.00
2022-12-26T06:52:01.408Z,65.00
2022-12-26T06:54:28.392Z,65.00
2022-12-26T06:56:55.404Z,65.10
2022-12-26T06:59:22.425Z,65.00
2022-12-26T07:01:49.630Z,64.90
2022-12-26T07:04:16.685Z,64.90
2022-12-26T07:06:43.743Z,64.90
2022-12-26T07:09:16.990Z,65.00
2022-12-26T07:11:47.515Z,65.10
2022-12-26T07:14:15.282Z,65.00
2022-12-26T07:16:44.225Z,65.10
2022-12-26T07:19:12.753Z,65.10
2022-12-26T07:21:41.008Z,65.00
2022-12-26T07:24:20.826Z,65.20
2022-12-26T07:26:48.664Z,65.10
2022-12-26T07:29:16.138Z,65.20
2022-12-26T07:31:43.346Z,65.20
2022-12-26T07:34:10.519Z,65.10
2022-12-26T07:36:37.853Z,65.30
2022-12-26T07:39:04.785Z,65.30
2022-12-26T07:41:51.300Z,65.40
2022-12-26T07:44:18.290Z,65.60
2022-12-26T07:46:46.864Z,65.50
2022-12-26T07:49:14.539Z,65.30
2022-12-26T07:51:42.795Z,65.40
2022-12-26T07:54:11.711Z,65.40
2022-12-26T07:56:40.317Z,66.40
2022-12-26T07:59:08.545Z,65.50
2022-12-26T08:01:35.723Z,65.40
2022-12-26T08:04:03.086Z,65.40
2022-12-26T08:06:30.104Z,65.40
2022-12-26T08:08:58.392Z,65.50
2022-12-26T08:11:25.644Z,65.30
2022-12-26T08:13:52.736Z,65.20
2022-12-26T08:16:20.132Z,65.30
2022-12-26T08:18:47.266Z,65.30
2022-12-26T08:21:14.700Z,65.40
2022-12-26T08:23:41.804Z,65.00
2022-12-26T08:26:11.939Z,65.20
2022-12-26T08:28:42.198Z,65.00
2022-12-26T08:31:12.632Z,65.00
2022-12-26T08:33:39.831Z,64.70
2022-12-26T08:36:09.616Z,64.70
2022-12-26T08:38:37.582Z,64.80
2022-12-26T08:41:04.981Z,64.90
2022-12-26T08:44:03.019Z,64.90
2022-12-26T08:46:21.516Z,64.90
2022-12-26T08:48:49.334Z,64.80
2022-12-26T08:51:19.755Z,64.80
2022-12-26T08:53:49.545Z,64.90
2022-12-26T08:56:20.433Z,64.80
2022-12-26T08:58:48.018Z,65.00
2022-12-26T09:01:21.257Z,64.90
2022-12-26T09:03:52.123Z,64.70
2022-12-26T09:06:19.285Z,64.90
2022-12-26T09:08:46.348Z,65.00
2022-12-26T09:11:16.188Z,64.60
2022-12-26T09:13:44.448Z,64.80
2022-12-26T09:16:14.389Z,64.80
2022-12-26T09:18:43.276Z,64.60
2022-12-26T09:21:11.908Z,64.50
2022-12-26T09:23:40.071Z,64.60
2022-12-26T09:26:16.343Z,64.30
2022-12-26T09:28:44.015Z,64.30
2022-12-26T09:31:14.350Z,64.10
2022-12-26T09:33:42.058Z,64.10
2022-12-26T09:36:15.077Z,64.10
2022-12-26T09:38:44.015Z,64.10
2022-12-26T09:41:20.514Z,64.10
2022-12-26T09:44:06.809Z,63.80
2022-12-26T09:46:49.281Z,63.70
2022-12-26T09:49:22.747Z,63.40
2022-12-26T09:52:02.149Z,63.50
2022-12-26T09:54:32.061Z,63.50
2022-12-26T09:57:02.667Z,63.40
2022-12-26T09:59:34.330Z,63.30
2022-12-26T10:02:01.459Z,63.30
2022-12-26T10:04:30.674Z,63.20
2022-12-26T10:07:14.728Z,63.10
2022-12-26T10:10:04.773Z,63.20
2022-12-26T10:12:34.643Z,63.50
2022-12-26T10:15:07.706Z,64.10
2022-12-26T10:17:46.753Z,64.40
2022-12-26T10:20:28.272Z,64.30
2022-12-26T10:23:14.448Z,64.10
2022-12-26T10:25:56.721Z,64.10
2022-12-26T10:28:40.312Z,63.80
2022-12-26T10:31:21.444Z,63.80
2022-12-26T10:34:06.964Z,63.90
2022-12-26T10:36:36.840Z,63.70
2022-12-26T10:39:14.550Z,63.70
2022-12-26T10:41:56.249Z,63.60
2022-12-26T10:44:27.574Z,63.60
2022-12-26T10:46:55.042Z,63.40
2022-12-26T10:49:24.541Z,63.60
2022-12-26T10:51:54.238Z,63.40
2022-12-26T10:54:21.264Z,63.50
2022-12-26T10:56:51.675Z,63.50
2022-12-26T10:59:23.180Z,63.40
2022-12-26T11:01:50.905Z,63.60
2022-12-26T11:07:17.422Z,63.50
2022-12-26T11:09:45.973Z,63.50
2022-12-26T11:12:26.969Z,63.60
2022-12-26T11:15:00.154Z,63.90
2022-12-26T11:17:41.117Z,64.10
2022-12-26T11:20:14.671Z,64.40
2022-12-26T11:22:45.990Z,64.80
2022-12-26T11:25:21.364Z,64.70
2022-12-26T11:27:57.512Z,64.80
2022-12-26T11:30:29.459Z,64.80
2022-12-26T11:33:30.503Z,64.80
2022-12-26T11:36:12.064Z,65.00
2022-12-26T11:39:19.718Z,65.20
2022-12-26T11:41:49.240Z,65.60
2022-12-26T11:44:29.031Z,65.90
2022-12-26T11:47:18.059Z,66.00
2022-12-26T11:50:11.999Z,66.30
2022-12-26T11:52:51.870Z,66.30
2022-12-26T11:55:38.109Z,66.20
2022-12-26T11:58:08.124Z,66.40
2022-12-26T12:00:41.415Z,66.40
2022-12-26T12:03:41.111Z,66.30
2022-12-26T12:06:27.426Z,66.20
2022-12-26T12:09:02.275Z,66.20
2022-12-26T12:11:42.679Z,66.30
2022-12-26T12:14:18.509Z,66.30
2022-12-26T12:16:49.919Z,66.50
2022-12-26T12:19:31.512Z,66.50
2022-12-26T12:22:26.308Z,66.20
2022-12-26T12:25:02.456Z,66.30
2022-12-26T12:27:37.672Z,66.30
2022-12-26T12:30:28.821Z,66.40
2022-12-26T12:33:14.751Z,66.60
2022-12-26T12:35:45.777Z,66.50
2022-12-26T12:38:40.736Z,66.90
2022-12-26T12:41:20.743Z,66.80
2022-12-26T12:44:03.382Z,67.30
2022-12-26T12:46:45.519Z,68.80
2022-12-26T12:49:36.725Z,69.70
2022-12-26T12:52:06.780Z,70.20
2022-12-26T12:55:00.124Z,70.40
2022-12-26T12:57:37.289Z,71.00
2022-12-26T13:00:21.876Z,72.10
2022-12-26T13:03:02.349Z,71.70
2022-12-26T13:05:53.239Z,71.80
2022-12-26T13:08:44.387Z,71.00
2022-12-26T13:11:35.793Z,70.70
2022-12-26T13:14:19.366Z,71.00
2022-12-26T13:17:14.421Z,71.20
2022-12-26T13:19:51.585Z,71.80
2022-12-26T13:22:51.345Z,71.40
2022-12-26T13:25:20.124Z,71.40
2022-12-26T13:27:49.654Z,71.50
2022-12-26T13:30:17.965Z,71.60
2022-12-26T13:32:46.863Z,71.80
2022-12-26T13:35:51.308Z,72.00
2022-12-26T13:38:19.570Z,72.30
2022-12-26T13:41:21.633Z,72.00
2022-12-26T13:44:23.200Z,72.30
2022-12-26T13:46:50.292Z,72.40
2022-12-26T13:49:31.054Z,72.70
2022-12-26T13:52:32.777Z,72.90
2022-12-26T13:55:06.728Z,74.00
2022-12-26T13:57:40.272Z,73.10
2022-12-26T14:00:23.369Z,73.10
2022-12-26T14:03:21.355Z,73.20
2022-12-26T14:06:11.277Z,73.10
2022-12-26T14:08:56.952Z,73.10
2022-12-26T14:11:47.983Z,73.10
2022-12-26T14:14:36.187Z,73.00
2022-12-26T14:17:21.398Z,73.10
2022-12-26T14:20:19.043Z,73.00
2022-12-26T14:23:05.704Z,73.00
2022-12-26T14:25:50.971Z,73.00
2022-12-26T14:28:23.205Z,73.00
2022-12-26T14:31:05.446Z,73.00
2022-12-26T14:33:32.499Z,73.00
2022-12-26T14:36:21.316Z,73.00
2022-12-26T14:38:55.638Z,73.10
2022-12-26T14:41:42.672Z,73.00
2022-12-26T14:44:22.056Z,72.80
2022-12-26T14:46:49.396Z,73.00
2022-12-26T14:49:41.452Z,73.00
2022-12-26T14:52:23.811Z,72.80
2022-12-26T14:54:52.053Z,72.70
2022-12-26T14:57:48.352Z,72.70
2022-12-26T15:00:29.427Z,72.80
2022-12-26T15:02:59.637Z,72.50
2022-12-26T15:05:37.765Z,72.40
2022-12-26T15:08:23.602Z,72.30
2022-12-26T15:11:27.156Z,72.30
2022-12-26T15:14:18.654Z,72.30
2022-12-26T15:16:53.716Z,72.00
2022-12-26T15:19:50.734Z,71.90
2022-12-26T15:22:52.013Z,71.90
2022-12-26T15:25:56.814Z,71.80
2022-12-26T15:28:42.926Z,71.80
2022-12-26T15:31:25.011Z,71.80
2022-12-26T15:34:01.293Z,71.80
2022-12-26T15:36:58.284Z,71.60
2022-12-26T15:40:10.528Z,71.60
2022-12-26T15:42:55.057Z,71.70
2022-12-26T15:45:32.794Z,71.30
2022-12-26T15:48:14.924Z,71.30
2022-12-26T15:51:00.852Z,71.20
2022-12-26T15:53:43.118Z,71.30
2022-12-26T15:56:20.969Z,71.30
2022-12-26T15:58:57.461Z,71.40
2022-12-26T16:01:45.377Z,71.40
2022-12-26T16:04:27.255Z,71.30
2022-12-26T16:07:25.285Z,71.20
2022-12-26T16:09:55.028Z,71.30
2022-12-26T16:12:29.669Z,71.20
2022-12-26T16:15:12.084Z,71.20
2022-12-26T16:17:40.411Z,71.10
2022-12-26T16:20:55.721Z,71.00
2022-12-26T16:23:25.210Z,71.00
2022-12-26T16:25:54.827Z,70.90
2022-12-26T16:28:26.161Z,71.00
2022-12-26T16:30:53.489Z,71.00
2022-12-26T16:33:20.601Z,71.10
2022-12-26T16:35:47.586Z,71.10
2022-12-26T16:38:22.652Z,71.00
2022-12-26T16:40:51.610Z,71.00
2022-12-26T16:43:19.531Z,71.00
2022-12-26T16:45:49.714Z,71.00
2022-12-26T16:48:22.774Z,70.90
2022-12-26T16:50:52.521Z,70.80
2022-12-26T16:53:36.039Z,70.80
2022-12-26T16:56:34.270Z,70.60
2022-12-26T16:59:22.799Z,70.50
2022-12-26T17:01:59.709Z,70.50
2022-12-26T17:04:29.041Z,70.40
2022-12-26T17:07:15.861Z,71.40
2022-12-26T17:09:49.698Z,70.60
2022-12-26T17:12:37.386Z,70.80
2022-12-26T17:15:06.614Z,70.90
2022-12-26T17:17:36.448Z,71.00
2022-12-26T17:20:22.457Z,71.20
2022-12-26T17:22:51.234Z,71.30
2022-12-26T17:25:18.147Z,71.30
2022-12-26T17:27:46.254Z,71.40
2022-12-26T17:30:29.598Z,71.60
2022-12-26T17:33:22.198Z,71.70
2022-12-26T17:38:54.555Z,72.10
2022-12-26T17:41:21.809Z,72.30
2022-12-26T17:43:49.156Z,72.40
2022-12-26T17:46:18.242Z,72.40
2022-12-26T17:48:45.653Z,72.50
2022-12-26T17:51:16.472Z,72.50
2022-12-26T17:53:51.284Z,72.50
2022-12-26T17:56:24.317Z,72.60
2022-12-26T17:58:51.485Z,72.70
2022-12-26T18:01:21.908Z,72.60
2022-12-26T18:03:50.143Z,72.70
2022-12-26T18:06:18.235Z,72.80
2022-12-26T18:08:45.630Z,72.80
2022-12-26T18:11:14.553Z,72.90
2022-12-26T18:13:42.315Z,72.90
2022-12-26T18:16:15.269Z,72.90
2022-12-26T18:18:44.963Z,72.80
2022-12-26T18:21:14.356Z,73.00
2022-12-26T18:23:41.773Z,73.00
2022-12-26T18:26:25.044Z,73.10
2022-12-26T18:28:52.218Z,73.00
2022-12-26T18:31:19.614Z,73.20
2022-12-26T18:33:46.712Z,73.30
2022-12-26T18:36:15.281Z,73.30
2022-12-26T18:38:42.446Z,73.20
2022-12-26T18:41:14.727Z,73.30
2022-12-26T18:43:41.802Z,73.20
2022-12-26T18:46:24.735Z,73.20
2022-12-26T18:48:56.778Z,73.30
2022-12-26T18:51:26.450Z,73.20
2022-12-26T18:53:53.954Z,72.90
2022-12-26T18:56:22.891Z,72.50
2022-12-26T18:58:57.410Z,71.90
2022-12-26T19:01:25.674Z,71.70
2022-12-26T19:03:54.131Z,71.20
2022-12-26T19:06:26.754Z,71.20
2022-12-26T19:08:54.218Z,71.70
2022-12-26T19:11:21.783Z,72.30
2022-12-26T19:13:48.956Z,72.60
2022-12-26T19:16:16.378Z,72.60
2022-12-26T19:18:43.475Z,73.00
2022-12-26T19:21:15.385Z,73.00
2022-12-26T19:23:47.031Z,72.70
2022-12-26T19:26:17.279Z,72.60
2022-12-26T19:28:44.412Z,72.70
2022-12-26T19:31:16.603Z,72.00
2022-12-26T19:33:43.722Z,70.50
2022-12-26T19:36:11.081Z,70.30
2022-12-26T19:38:38.242Z,70.70
2022-12-26T19:41:07.842Z,71.20
2022-12-26T19:43:35.311Z,71.90
2022-12-26T19:46:21.286Z,72.50
2022-12-26T19:48:48.563Z,72.80
2022-12-26T19:51:17.335Z,74.10
2022-12-26T19:53:45.212Z,74.30
2022-12-26T19:56:16.207Z,74.10
2022-12-26T19:58:43.871Z,73.80
2022-12-26T20:01:20.095Z,73.60
2022-12-26T20:03:47.653Z,73.40
2022-12-26T20:06:17.564Z,73.40
2022-12-26T20:08:46.528Z,73.30
2022-12-26T20:11:19.790Z,73.50
2022-12-26T20:13:47.148Z,73.40
2022-12-26T20:16:45.955Z,73.40
2022-12-26T20:19:04.195Z,73.40
2022-12-26T20:21:31.448Z,73.70
2022-12-26T20:23:59.922Z,73.60
2022-12-26T20:26:28.078Z,73.80
2022-12-26T20:29:03.232Z,73.80
2022-12-26T20:31:33.166Z,73.80
2022-12-26T20:34:01.051Z,74.00
2022-12-26T20:36:33.815Z,73.80
2022-12-26T20:39:04.710Z,73.80
2022-12-26T20:41:32.161Z,73.80
2022-12-26T20:43:59.595Z,73.90
2022-12-26T20:46:29.430Z,73.70
2022-12-26T20:48:56.520Z,73.80
2022-12-26T20:51:29.059Z,73.60
2022-12-26T20:54:00.894Z,73.50
2022-12-26T20:56:29.259Z,73.60
2022-12-26T20:58:59.214Z,73.70
2022-12-26T21:01:27.656Z,73.60
2022-12-26T21:03:56.610Z,73.60
2022-12-26T21:06:27.707Z,73.80
2022-12-26T21:08:56.412Z,73.80
2022-12-26T21:11:24.870Z,73.70
2022-12-26T21:13:54.860Z,73.70
2022-12-26T21:16:34.075Z,73.20
2022-12-26T21:19:01.444Z,73.20
2022-12-26T21:21:31.408Z,73.10
2022-12-26T21:24:01.059Z,73.30
2022-12-26T21:26:28.816Z,72.60
2022-12-26T21:29:00.995Z,72.20
2022-12-26T21:31:29.331Z,72.20
2022-12-26T21:33:58.127Z,71.90
2022-12-26T21:36:25.947Z,71.00
2022-12-26T21:38:53.742Z,70.30
2022-12-26T21:41:21.668Z,69.70
2022-12-26T21:43:49.241Z,69.70
2022-12-26T21:46:20.727Z,68.70
2022-12-26T21:48:49.925Z,68.40
2022-12-26T21:51:18.686Z,68.60
2022-12-26T21:53:46.819Z,68.30
2022-12-26T21:56:17.048Z,68.30
2022-12-26T21:59:03.564Z,68.50
2022-12-26T22:01:30.971Z,68.10
2022-12-26T22:04:17.680Z,68.10
2022-12-26T22:06:44.667Z,68.20
2022-12-26T22:09:12.327Z,68.20
2022-12-26T22:11:57.808Z,68.10
2022-12-26T22:14:24.966Z,68.10
2022-12-26T22:16:53.947Z,67.90
2022-12-26T22:19:22.040Z,67.40
2022-12-26T22:21:49.053Z,67.40
2022-12-26T22:24:16.236Z,67.50
2022-12-26T22:26:43.182Z,67.50
2022-12-26T22:29:10.202Z,67.70
2022-12-26T22:31:38.584Z,67.60
2022-12-26T22:34:08.415Z,67.60
2022-12-26T22:36:36.092Z,67.40
2022-12-26T22:39:03.445Z,67.50
2022-12-26T22:41:30.621Z,67.30
2022-12-26T22:43:57.722Z,67.30
2022-12-26T22:46:25.509Z,67.50
2022-12-26T22:48:52.564Z,67.60
2022-12-26T22:51:22.926Z,67.70
2022-12-26T22:53:53.359Z,67.70
2022-12-26T22:56:20.570Z,67.70
2022-12-26T22:58:47.608Z,67.70
2022-12-26T23:01:17.265Z,68.10
2022-12-26T23:03:44.961Z,68.20
2022-12-26T23:06:18.318Z,68.20
2022-12-26T23:08:45.657Z,67.80
2022-12-26T23:11:12.942Z,67.50
2022-12-26T23:13:40.243Z,66.90
2022-12-26T23:16:38.353Z,66.20
2022-12-26T23:20:05.868Z,65.70
2022-12-26T23:22:33.561Z,65.50
2022-12-26T23:25:02.598Z,65.20
2022-12-26T23:27:48.113Z,64.80
2022-12-26T23:30:20.849Z,64.20
2022-12-26T23:32:51.405Z,64.30
2022-12-26T23:35:19.592Z,64.20
2022-12-26T23:37:46.657Z,64.50
2022-12-26T23:40:15.509Z,64.60
2022-12-26T23:42:42.532Z,64.60
2022-12-26T23:45:14.223Z,64.40
2022-12-26T23:47:42.936Z,64.20
2022-12-26T23:50:11.903Z,64.30
2022-12-26T23:52:39.236Z,64.20
2022-12-26T23:55:06.838Z,64.30
2022-12-26T23:57:33.872Z,64.40
